Terminal Aerodrome Forecast
Issued by NWS Chicago, IL

Home | Current Version | Previous Version | Text Only | Print | Product List | Glossary Off
Versions: 1 2 3 4 5 6 7 8 9 10 11 12 13 14 15 16 17 18 19 20 21 22 23 24 25 26

000
FTUS43 KLOT 221459 AAA
TAFRFD
TAF AMD
KRFD 221459Z 2215/2312 23014G20KT P6SM SCT100 BKN250
     FM222000 23015G23KT 6SM -SHRA BKN050 BKN100
      TEMPO 2222/2224 5SM -TSRA BKN050CB
     FM230000 22014G21KT 6SM -SHRA BKN050
     FM230300 21010KT P6SM VCSH SCT025 BKN035
     FM230800 21007KT P6SM SCT020 OVC030=

USA.gov is the U.S. government's official web portal to all federal, state and local government web resources and services.